Time;durP1;ratioP1;P1;durP2;ratioP2;P2;SDS_P1;SDS_P2;PMS_P1;PMS_P2;Temp;Humidity;BMP_temperature;BMP_pressure;BME280_temperature;BME280_humidity;BME280_pressure;Samples;Min_cycle;Max_cycle;Signal;HPM_P1;HPM_P2
2023/01/30 00:00:08;;;;;;;12.03;10.80;;;1.30;50.90;;;;;;20909;6732;117566;-71
2023/01/30 00:02:40;;;;;;;16.50;15.00;;;1.10;51.40;;;;;;20692;6732;334614;-72
2023/01/30 00:05:17;;;;;;;13.30;11.83;;;1.20;51.60;;;;;;20845;6732;121496;-72
2023/01/30 00:07:51;;;;;;;11.80;10.80;;;1.20;51.40;;;;;;20893;6788;117210;-72
2023/01/30 00:10:27;;;;;;;11.83;10.63;;;0.80;52.00;;;;;;20908;6732;118916;-72
2023/01/30 00:13:03;;;;;;;16.83;15.23;;;0.80;52.00;;;;;;20672;6732;305643;-72
2023/01/30 00:15:41;;;;;;;14.07;12.17;;;1.00;52.10;;;;;;20827;6732;119011;-72
2023/01/30 00:18:14;;;;;;;17.07;15.37;;;1.00;51.80;;;;;;20694;6732;308206;-72
2023/01/30 00:20:54;;;;;;;18.03;16.23;;;1.50;51.70;;;;;;20749;6717;274080;-72
2023/01/30 00:23:30;;;;;;;13.60;12.23;;;1.50;51.10;;;;;;20890;6731;117251;-71
2023/01/30 00:26:05;;;;;;;13.53;12.17;;;1.40;50.80;;;;;;20804;6732;117142;-71
2023/01/30 00:28:41;;;;;;;16.50;15.00;;;1.10;51.20;;;;;;20762;6717;307278;-71
2023/01/30 00:31:17;;;;;;;17.37;15.70;;;1.20;51.30;;;;;;20634;6746;277556;-71
2023/01/30 00:33:52;;;;;;;13.60;11.83;;;1.60;50.60;;;;;;20842;6749;121003;-71
2023/01/30 00:36:28;;;;;;;12.63;11.40;;;1.50;50.40;;;;;;20764;6734;117553;-72
2023/01/30 00:39:05;;;;;;;13.40;11.47;;;1.20;50.80;;;;;;20901;6733;116991;-72
2023/01/30 00:47:29;;;;;;;13.50;12.10;;;1.00;51.80;;;;;;20893;6731;116783;-72
2023/01/30 00:50:05;;;;;;;12.80;11.50;;;1.00;51.50;;;;;;20893;6738;117609;-72
2023/01/30 00:52:42;;;;;;;16.47;14.93;;;0.90;52.30;;;;;;20717;6726;281067;-69
2023/01/30 00:55:17;;;;;;;17.70;16.00;;;0.90;51.60;;;;;;20557;6756;346186;-71
2023/01/30 00:57:53;;;;;;;14.70;13.10;;;1.30;51.10;;;;;;20886;6738;117072;-72
2023/01/30 01:00:28;;;;;;;14.83;12.17;;;1.20;50.80;;;;;;20866;6748;117100;-72
2023/01/30 01:03:05;;;;;;;16.97;15.37;;;1.00;51.30;;;;;;20757;6704;278071;-71
2023/01/30 01:05:39;;;;;;;17.00;15.40;;;1.10;51.40;;;;;;20608;6737;311865;-72
2023/01/30 01:08:15;;;;;;;16.97;15.40;;;1.40;50.80;;;;;;20663;6737;317379;-71
2023/01/30 01:10:50;;;;;;;13.70;12.30;;;1.70;50.20;;;;;;20834;6753;118168;-71
2023/01/30 01:13:27;;;;;;;15.93;14.53;;;1.50;50.10;;;;;;20658;6738;276763;-71
2023/01/30 01:16:01;;;;;;;15.93;14.53;;;1.60;50.00;;;;;;20566;6738;307827;-72
2023/01/30 01:18:44;;;;;;;12.67;11.37;;;1.80;49.60;;;;;;20883;6738;117520;-73
2023/01/30 01:21:14;;;;;;;15.23;13.87;;;1.70;49.70;;;;;;20652;6738;306461;-72
2023/01/30 01:23:51;;;;;;;13.10;11.30;;;1.70;49.80;;;;;;20910;6732;117671;-72
2023/01/30 01:26:26;;;;;;;15.23;13.83;;;1.60;50.00;;;;;;20548;6732;306451;-72
2023/01/30 01:29:01;;;;;;;12.90;11.57;;;1.60;50.00;;;;;;20886;6732;126772;-72
2023/01/30 01:31:38;;;;;;;13.50;10.90;;;1.60;50.20;;;;;;20904;6732;117200;-71
2023/01/30 01:34:13;;;;;;;14.97;13.57;;;1.30;50.60;;;;;;20697;6732;281954;-72
2023/01/30 01:36:53;;;;;;;14.73;13.40;;;1.80;49.70;;;;;;20541;6732;279435;-72
2023/01/30 01:41:00;;;;;;;15.32;13.82;;;1.70;49.60;;;;;;20681;6731;277087;-73
2023/01/30 01:42:03;;;;;;;12.83;11.53;;;2.10;49.10;;;;;;20870;6788;121415;-73
2023/01/30 01:44:57;;;;;;;11.63;10.43;;;1.90;49.00;;;;;;20902;6732;117011;-72
2023/01/30 01:47:30;;;;;;;11.03;9.97;;;1.60;49.70;;;;;;20894;6732;121806;-71
2023/01/30 01:50:10;;;;;;;14.37;13.07;;;1.40;50.50;;;;;;20695;6732;291795;-72
2023/01/30 01:52:45;;;;;;;12.03;10.77;;;1.40;50.50;;;;;;20824;6787;118070;-72
2023/01/30 01:55:23;;;;;;;12.13;10.33;;;1.40;50.40;;;;;;20832;6731;117331;-71
2023/01/30 01:57:57;;;;;;;14.70;13.40;;;1.40;50.60;;;;;;20685;6731;280934;-73
2023/01/30 02:00:33;;;;;;;15.75;14.25;;;1.30;50.60;;;;;;20687;6731;339513;-73
2023/01/30 02:03:12;;;;;;;13.77;11.77;;;1.70;49.70;;;;;;20882;6731;117459;-72
2023/01/30 02:05:48;;;;;;;13.67;11.23;;;1.40;50.10;;;;;;20815;6731;120760;-71
2023/01/30 02:08:25;;;;;;;12.67;11.37;;;1.40;50.10;;;;;;20917;6732;117285;-72
2023/01/30 02:11:21;;;;;;;16.57;15.07;;;1.20;50.60;;;;;;20161;6788;335137;-72
2023/01/30 02:13:56;;;;;;;14.00;12.50;;;1.30;50.80;;;;;;20908;6732;116931;-72
2023/01/30 02:16:30;;;;;;;12.40;10.90;;;1.30;50.70;;;;;;20760;6732;117503;-73
2023/01/30 02:19:06;;;;;;;16.33;14.83;;;1.10;51.00;;;;;;20669;6732;276201;-72
2023/01/30 02:22:09;;;;;;;17.37;15.77;;;1.20;50.90;;;;;;20664;6788;310432;-72
2023/01/30 02:25:24;;;;;;;13.90;12.50;;;1.60;50.30;;;;;;20895;6732;118951;-70
2023/01/30 02:28:17;;;;;;;12.73;11.53;;;1.30;50.70;;;;;;20904;6732;121245;-70
2023/01/30 02:31:03;;;;;;;13.47;12.00;;;1.20;51.30;;;;;;20848;6788;122760;-70
2023/01/30 02:33:47;;;;;;;16.08;14.57;;;1.20;51.10;;;;;;20693;6732;323614;-71
2023/01/30 02:36:51;;;;;;;13.73;11.87;;;1.20;51.10;;;;;;20773;6732;117449;-72
2023/01/30 02:40:06;;;;;;;16.87;15.27;;;1.40;50.40;;;;;;19875;6788;276326;-72
2023/01/30 02:42:49;;;;;;;14.10;12.10;;;1.40;50.40;;;;;;19811;7084;119142;-72
2023/01/30 02:45:37;;;;;;;12.87;11.33;;;1.10;50.20;;;;;;19670;7140;127178;-72
2023/01/30 02:48:12;;;;;;;16.20;14.70;;;1.20;50.50;;;;;;20082;6773;297298;-72
2023/01/30 02:51:01;;;;;;;17.77;16.17;;;1.20;50.50;;;;;;20742;6717;276678;-72
2023/01/30 02:53:36;;;;;;;16.23;14.73;;;1.50;49.80;;;;;;20566;6773;295475;-71
2023/01/30 02:56:12;;;;;;;11.63;10.43;;;1.80;49.20;;;;;;20823;6717;118785;-71
2023/01/30 02:58:47;;;;;;;16.37;14.80;;;1.70;49.30;;;;;;20730;6717;334419;-72
2023/01/30 03:01:36;;;;;;;16.83;15.23;;;1.70;49.20;;;;;;20719;6717;285273;-72
2023/01/30 03:04:44;;;;;;;15.38;14.07;;;1.90;48.70;;;;;;20744;6716;307382;-71
2023/01/30 03:07:28;;;;;;;16.67;15.17;;;2.10;48.30;;;;;;20676;6731;276319;-72
2023/01/30 03:10:01;;;;;;;12.73;11.43;;;2.00;48.80;;;;;;20946;6716;118711;-72
2023/01/30 03:12:43;;;;;;;13.00;11.63;;;1.90;48.00;;;;;;20962;6717;117905;-71
2023/01/30 03:15:30;;;;;;;12.07;10.83;;;1.60;48.90;;;;;;20831;6731;119481;-71
2023/01/30 03:18:05;;;;;;;12.17;10.97;;;1.20;49.60;;;;;;20720;6788;116975;-72
2023/01/30 03:20:47;;;;;;;15.27;13.90;;;0.90;50.30;;;;;;20685;6732;305641;-71
2023/01/30 03:23:18;;;;;;;12.27;11.07;;;1.00;50.40;;;;;;20887;6732;118800;-71
2023/01/30 03:25:53;;;;;;;15.67;14.17;;;1.00;50.30;;;;;;20609;6732;310413;-72
2023/01/30 03:28:28;;;;;;;16.23;14.73;;;1.20;50.10;;;;;;20693;6732;296883;-71
2023/01/30 03:31:04;;;;;;;12.83;11.53;;;1.40;49.40;;;;;;20889;6732;117002;-71
2023/01/30 03:33:38;;;;;;;15.37;13.97;;;1.30;49.30;;;;;;20690;6732;310690;-72
2023/01/30 03:36:15;;;;;;;16.60;15.00;;;1.30;49.40;;;;;;20582;6732;277032;-72
2023/01/30 03:38:57;;;;;;;12.87;11.67;;;1.60;49.00;;;;;;20833;6751;117330;-72
2023/01/30 03:41:28;;;;;;;12.23;11.03;;;1.40;49.00;;;;;;20821;6752;119980;-71
2023/01/30 03:44:04;;;;;;;15.73;14.20;;;1.10;49.80;;;;;;20623;6752;277336;-71
2023/01/30 03:46:40;;;;;;;12.13;10.90;;;1.20;49.80;;;;;;20744;6736;119038;-71
2023/01/30 03:49:16;;;;;;;13.33;11.13;;;1.10;49.80;;;;;;20958;6710;117003;-72
2023/01/30 03:51:53;;;;;;;15.13;13.80;;;0.90;50.20;;;;;;20782;6704;291415;-72
2023/01/30 03:54:31;;;;;;;12.53;11.23;;;1.00;50.40;;;;;;20907;6737;121327;-71
2023/01/30 03:57:05;;;;;;;14.98;13.57;;;1.10;50.00;;;;;;20478;6730;336460;-71
2023/01/30 03:59:39;;;;;;;14.60;13.20;;;1.10;50.60;;;;;;20692;6727;309754;-71
2023/01/30 04:02:19;;;;;;;12.57;11.23;;;1.40;49.40;;;;;;20926;6724;117171;-71
2023/01/30 04:04:51;;;;;;;14.37;13.07;;;1.50;49.20;;;;;;20620;6749;277215;-72
2023/01/30 04:07:30;;;;;;;13.67;12.47;;;1.50;49.40;;;;;;20688;6734;305504;-71
2023/01/30 04:10:06;;;;;;;14.20;12.90;;;1.80;49.60;;;;;;20637;6749;290845;-71
2023/01/30 04:12:43;;;;;;;12.57;10.40;;;2.00;48.10;;;;;;20898;6736;117534;-70
2023/01/30 04:15:17;;;;;;;13.80;12.60;;;1.80;48.30;;;;;;20586;6744;281458;-71
2023/01/30 04:17:52;;;;;;;12.60;11.30;;;1.70;48.40;;;;;;20908;6727;117266;-71
2023/01/30 04:20:31;;;;;;;11.03;9.90;;;1.60;48.70;;;;;;20918;6727;117051;-71
2023/01/30 04:23:04;;;;;;;12.27;10.30;;;1.30;49.20;;;;;;20855;6734;118568;-72
2023/01/30 04:25:50;;;;;;;10.47;9.07;;;1.00;49.80;;;;;;20809;6734;118722;-72
2023/01/30 04:28:17;;;;;;;10.80;9.80;;;0.90;50.50;;;;;;20938;6719;122655;-72
2023/01/30 04:30:58;;;;;;;10.60;9.57;;;0.70;50.80;;;;;;20940;6734;116771;-71
2023/01/30 04:33:30;;;;;;;11.60;9.87;;;0.60;51.00;;;;;;20884;6732;117095;-72
2023/01/30 04:36:04;;;;;;;10.33;9.33;;;0.60;51.30;;;;;;20858;6717;117550;-70
2023/01/30 04:38:41;;;;;;;14.30;12.90;;;0.50;51.50;;;;;;20740;6717;309483;-71
2023/01/30 04:41:15;;;;;;;11.80;10.60;;;0.70;51.20;;;;;;20941;6717;123690;-70
2023/01/30 04:43:50;;;;;;;10.67;9.60;;;0.80;50.90;;;;;;20948;6719;116975;-70
2023/01/30 04:46:27;;;;;;;11.37;10.17;;;0.80;51.10;;;;;;20740;6734;118938;-71
2023/01/30 04:49:02;;;;;;;10.10;9.00;;;0.70;51.50;;;;;;20914;6725;119462;-70
2023/01/30 04:51:38;;;;;;;14.17;12.77;;;0.80;51.40;;;;;;20667;6734;310302;-74
2023/01/30 04:54:14;;;;;;;14.50;13.20;;;0.80;51.40;;;;;;20686;6729;342084;-71
2023/01/30 04:56:50;;;;;;;14.35;12.98;;;1.60;49.70;;;;;;20473;6737;308672;-71
2023/01/30 04:59:26;;;;;;;11.90;10.80;;;1.60;49.60;;;;;;20876;6734;119866;-71
2023/01/30 05:02:02;;;;;;;10.93;9.83;;;1.60;49.50;;;;;;20894;6734;117107;-70
2023/01/30 05:04:40;;;;;;;13.27;12.07;;;1.40;50.10;;;;;;20716;6720;310228;-72
2023/01/30 05:07:13;;;;;;;10.93;9.47;;;1.40;50.10;;;;;;20915;6734;116987;-72
2023/01/30 05:09:49;;;;;;;9.97;9.07;;;1.50;50.30;;;;;;20889;6737;116780;-72
2023/01/30 05:12:24;;;;;;;10.07;9.07;;;1.30;50.70;;;;;;20939;6720;116669;-73
2023/01/30 05:15:00;;;;;;;13.50;12.30;;;1.40;51.00;;;;;;20580;6734;305697;-75
2023/01/30 05:17:37;;;;;;;13.00;11.90;;;1.40;51.00;;;;;;20611;6749;306462;-71
2023/01/30 05:20:13;;;;;;;13.62;12.48;;;1.80;50.20;;;;;;20665;6734;277743;-72
2023/01/30 05:22:49;;;;;;;13.07;11.98;;;2.40;48.70;;;;;;20665;6734;277570;-78
2023/01/30 05:25:25;;;;;;;13.67;12.47;;;2.50;48.80;;;;;;20586;6737;278016;-75
2023/01/30 05:28:00;;;;;;;11.17;10.17;;;2.60;48.20;;;;;;20876;6734;118231;-74
2023/01/30 05:30:39;;;;;;;10.53;9.50;;;2.50;48.40;;;;;;20837;6749;117550;-73
2023/01/30 05:33:12;;;;;;;12.87;11.87;;;2.20;49.20;;;;;;20626;6746;299545;-72
2023/01/30 06:08:03;;;;;;;11.73;10.83;;;3.20;46.40;;;;;;21072;6524;279368;-73
2023/01/30 06:10:29;;;;;;;10.03;9.13;;;3.20;46.10;;;;;;20871;6791;117055;-79
2023/01/30 06:12:54;;;;;;;8.90;8.10;;;2.90;46.50;;;;;;20855;6801;118090;-75
2023/01/30 06:15:21;;;;;;;11.43;10.53;;;2.50;47.40;;;;;;20528;6816;338515;-76
2023/01/30 06:17:47;;;;;;;11.57;10.68;;;2.60;46.90;;;;;;20446;6865;308724;-72
2023/01/30 06:20:13;;;;;;;11.03;10.17;;;2.60;46.90;;;;;;20447;6863;308386;-74
2023/01/30 06:22:39;;;;;;;8.90;8.17;;;2.80;46.40;;;;;;20661;6863;118905;-72
2023/01/30 06:25:04;;;;;;;10.67;9.77;;;2.60;46.70;;;;;;20426;6863;308539;-73
2023/01/30 06:27:30;;;;;;;10.60;9.70;;;2.60;46.60;;;;;;20464;6851;308723;-74
2023/01/30 06:29:55;;;;;;;9.23;8.43;;;2.70;46.10;;;;;;20650;6863;119127;-73
2023/01/30 06:32:22;;;;;;;10.70;9.80;;;2.50;46.20;;;;;;20429;6862;310244;-73
2023/01/30 06:34:48;;;;;;;8.57;7.87;;;2.40;46.10;;;;;;20643;6864;117573;-75
2023/01/30 06:37:12;;;;;;;10.00;9.30;;;2.20;46.40;;;;;;20390;6851;338218;-74
2023/01/30 06:39:38;;;;;;;8.43;7.60;;;2.20;46.40;;;;;;20678;6851;118132;-73
2023/01/30 06:42:04;;;;;;;9.30;8.60;;;2.00;46.70;;;;;;20446;6865;309201;-74
2023/01/30 06:44:32;;;;;;;9.35;8.45;;;2.00;46.80;;;;;;20649;6865;117396;-74
2023/01/30 06:46:57;;;;;;;7.80;7.20;;;1.90;46.70;;;;;;20652;6865;117434;-74
2023/01/30 06:49:25;;;;;;;8.20;7.47;;;1.50;47.90;;;;;;20627;6863;123578;-75
2023/01/30 06:51:49;;;;;;;7.70;7.00;;;1.40;48.50;;;;;;20631;6863;117161;-76
2023/01/30 06:54:16;;;;;;;9.90;9.10;;;1.50;47.90;;;;;;20449;6863;295170;-75
2023/01/30 06:56:41;;;;;;;8.47;7.77;;;1.50;47.90;;;;;;20600;6878;117261;-75
2023/01/30 06:59:09;;;;;;;7.97;7.27;;;1.50;48.30;;;;;;20575;6878;118651;-82
2023/01/30 07:01:33;;;;;;;7.27;6.40;;;1.50;48.30;;;;;;20626;6858;121213;-79
2023/01/30 07:04:01;;;;;;;9.80;9.10;;;1.40;48.80;;;;;;20473;6858;279548;-75
2023/01/30 07:06:29;;;;;;;8.65;7.78;;;1.60;48.10;;;;;;20637;6859;116620;-75
2023/01/30 07:08:57;;;;;;;9.30;8.60;;;1.70;48.10;;;;;;20417;6863;309354;-73
2023/01/30 07:11:19;;;;;;;8.75;8.05;;;1.90;47.50;;;;;;20638;6859;118441;-73
2023/01/30 07:13:46;;;;;;;7.80;7.10;;;1.90;47.50;;;;;;20647;6859;117303;-73
2023/01/30 07:16:11;;;;;;;9.20;8.40;;;1.90;47.30;;;;;;20423;6859;279778;-73
2023/01/30 07:18:38;;;;;;;7.70;7.10;;;1.90;47.30;;;;;;20652;6858;117251;-75
2023/01/30 07:21:04;;;;;;;9.27;8.57;;;1.90;47.30;;;;;;20399;6859;310768;-75
2023/01/30 07:23:27;;;;;;;9.13;8.45;;;2.00;46.60;;;;;;20427;6859;313269;-74
2023/01/30 07:25:54;;;;;;;8.00;7.20;;;2.30;45.80;;;;;;20677;6859;117266;-74
2023/01/30 07:28:20;;;;;;;8.57;7.97;;;2.40;46.10;;;;;;20457;6859;278557;-82
2023/01/30 07:30:45;;;;;;;7.53;6.93;;;2.40;46.00;;;;;;20665;6859;118385;-75
2023/01/30 07:33:11;;;;;;;8.50;7.90;;;2.40;46.40;;;;;;20426;6859;314540;-76
2023/01/30 07:35:37;;;;;;;6.43;5.93;;;2.50;46.20;;;;;;20667;6863;118613;-74
2023/01/30 07:38:04;;;;;;;6.17;5.57;;;2.50;46.20;;;;;;20671;6848;117494;-75
2023/01/30 07:40:29;;;;;;;8.33;7.73;;;2.40;46.90;;;;;;20480;6844;278646;-73
2023/01/30 07:43:00;;;;;;;8.87;8.27;;;2.50;46.30;;;;;;20507;6844;278293;-74
2023/01/30 07:45:24;;;;;;;8.17;7.47;;;2.90;45.60;;;;;;20609;6850;125626;-73
2023/01/30 07:47:50;;;;;;;17.60;15.80;;;3.00;45.10;;;;;;20476;6850;281810;-73
2023/01/30 07:50:18;;;;;;;8.95;8.25;;;3.10;45.20;;;;;;20444;6854;308121;-73
2023/01/30 07:52:43;;;;;;;9.33;8.63;;;3.40;44.50;;;;;;20412;6857;279114;-73
2023/01/30 07:55:09;;;;;;;7.60;7.00;;;3.60;43.90;;;;;;20616;6857;117353;-73
2023/01/30 07:57:36;;;;;;;7.27;6.77;;;3.30;45.00;;;;;;20640;6856;118002;-73
2023/01/30 08:00:01;;;;;;;9.10;8.40;;;3.30;45.00;;;;;;20432;6856;313632;-73
2023/01/30 08:02:27;;;;;;;11.77;10.77;;;3.50;44.20;;;;;;20410;6863;303394;-73
2023/01/30 08:04:51;;;;;;;13.07;11.53;;;3.50;44.10;;;;;;20577;6878;118124;-73
2023/01/30 08:07:18;;;;;;;15.35;13.93;;;3.50;44.40;;;;;;20419;6862;279954;-73
2023/01/30 08:09:45;;;;;;;10.83;9.80;;;3.50;44.40;;;;;;20668;6862;117768;-70
2023/01/30 08:12:10;;;;;;;10.18;9.35;;;3.50;44.80;;;;;;20379;6862;286872;-75
2023/01/30 08:14:34;;;;;;;8.67;7.87;;;3.50;45.20;;;;;;20625;6862;117465;-72
2023/01/30 08:17:02;;;;;;;10.02;9.02;;;3.40;44.80;;;;;;20672;6862;124304;-73
2023/01/30 08:19:29;;;;;;;12.57;10.10;;;3.30;45.50;;;;;;20671;6862;117722;-73
2023/01/30 08:21:54;;;;;;;10.70;9.73;;;3.10;46.10;;;;;;20386;6862;309306;-72
2023/01/30 08:24:20;;;;;;;7.85;7.25;;;3.20;45.80;;;;;;20644;6862;118555;-73
2023/01/30 08:26:44;;;;;;;9.37;8.53;;;3.10;45.80;;;;;;20629;6862;117550;-73
2023/01/30 08:29:09;;;;;;;8.35;7.00;;;3.00;46.30;;;;;;20620;6860;118384;-73
2023/01/30 08:31:36;;;;;;;7.35;6.72;;;2.90;46.80;;;;;;20675;6861;120298;-72
2023/01/30 08:34:01;;;;;;;3.95;3.65;;;2.70;47.30;;;;;;20639;6861;117151;-73
2023/01/30 08:36:27;;;;;;;9.13;6.95;;;2.70;47.90;;;;;;20636;6862;118854;-73
2023/01/30 08:38:52;;;;;;;11.43;10.43;;;2.60;48.30;;;;;;20436;6862;309119;-74
2023/01/30 08:41:18;;;;;;;8.43;5.97;;;2.90;47.40;;;;;;20647;6862;118694;-73
2023/01/30 08:43:43;;;;;;;9.17;6.93;;;3.00;47.50;;;;;;20665;6862;117330;-73
2023/01/30 08:46:08;;;;;;;9.77;8.88;;;2.90;47.70;;;;;;20460;6862;279079;-74
2023/01/30 08:48:39;;;;;;;7.63;6.80;;;3.20;47.10;;;;;;20673;6862;118348;-73
2023/01/30 08:51:00;;;;;;;10.60;9.60;;;3.20;47.00;;;;;;20415;6862;281413;-73
2023/01/30 08:53:25;;;;;;;9.03;8.23;;;3.50;46.60;;;;;;20442;6862;313904;-73
2023/01/30 08:55:51;;;;;;;9.17;8.00;;;3.80;45.70;;;;;;20664;6862;117870;-73
2023/01/30 08:58:16;;;;;;;7.37;6.68;;;3.90;46.00;;;;;;20668;6862;117798;-74
2023/01/30 09:00:43;;;;;;;7.95;6.07;;;3.80;46.40;;;;;;20667;6862;121070;-73
2023/01/30 09:03:08;;;;;;;9.65;8.75;;;3.70;46.50;;;;;;20437;6862;341898;-74
2023/01/30 09:05:34;;;;;;;24.73;17.50;;;3.70;46.50;;;;;;20667;6862;118582;-72
2023/01/30 09:07:59;;;;;;;22.40;16.08;;;3.70;46.50;;;;;;20662;6862;118257;-73
2023/01/30 09:10:25;;;;;;;10.13;9.33;;;3.60;46.90;;;;;;20456;6862;309158;-73
2023/01/30 09:12:50;;;;;;;6.53;6.12;;;3.70;46.50;;;;;;20667;6862;118937;-73
2023/01/30 09:15:16;;;;;;;6.53;5.95;;;3.90;46.70;;;;;;20645;6862;117369;-72
2023/01/30 09:17:43;;;;;;;5.90;5.50;;;3.80;47.20;;;;;;20670;6862;121371;-73
2023/01/30 09:20:08;;;;;;;7.60;6.97;;;3.80;47.70;;;;;;20453;6862;282141;-73
2023/01/30 09:22:34;;;;;;;6.83;6.33;;;4.30;47.30;;;;;;20662;6862;117444;-75
2023/01/30 09:25:01;;;;;;;7.43;6.85;;;4.60;47.20;;;;;;20448;6862;337855;-76
2023/01/30 09:27:27;;;;;;;5.93;5.43;;;4.80;46.60;;;;;;20529;6862;117657;-73
2023/01/30 09:29:52;;;;;;;6.77;6.27;;;4.70;46.60;;;;;;20670;6862;118500;-73
2023/01/30 09:32:18;;;;;;;7.25;6.55;;;4.80;47.10;;;;;;20679;6862;117738;-73
2023/01/30 09:34:44;;;;;;;7.30;6.80;;;4.80;47.40;;;;;;20462;6862;338382;-74
2023/01/30 09:37:10;;;;;;;6.57;6.07;;;5.50;45.70;;;;;;20440;6862;338310;-73
2023/01/30 09:39:35;;;;;;;6.63;6.13;;;5.50;45.70;;;;;;20450;6862;341919;-73
2023/01/30 09:42:04;;;;;;;6.28;5.78;;;5.90;45.00;;;;;;20676;6860;122493;-73
2023/01/30 09:44:46;;;;;;;6.70;6.20;;;6.00;45.10;;;;;;20668;6861;117236;-72
2023/01/30 09:47:12;;;;;;;9.65;8.85;;;5.90;45.60;;;;;;20384;6862;313195;-73
2023/01/30 09:50:05;;;;;;;7.35;6.82;;;6.10;45.50;;;;;;20421;6862;343985;-73
2023/01/30 09:52:32;;;;;;;5.37;5.03;;;6.50;44.70;;;;;;20454;6862;295471;-72
2023/01/30 09:55:01;;;;;;;4.77;4.47;;;7.00;43.70;;;;;;20645;6862;118379;-73
2023/01/30 09:57:26;;;;;;;4.87;4.47;;;7.00;43.60;;;;;;20527;6862;117310;-73
2023/01/30 10:00:15;;;;;;;4.55;4.25;;;6.50;44.80;;;;;;20667;6862;117676;-73
2023/01/30 10:03:08;;;;;;;4.20;3.80;;;6.50;44.80;;;;;;20680;6862;119679;-73
2023/01/30 10:05:47;;;;;;;4.93;4.60;;;6.30;45.40;;;;;;20679;6862;123618;-72
2023/01/30 10:08:32;;;;;;;4.43;4.13;;;6.10;45.70;;;;;;20671;6862;117565;-73
2023/01/30 10:11:17;;;;;;;5.03;4.63;;;5.90;45.90;;;;;;20461;6862;295556;-73
2023/01/30 10:13:51;;;;;;;5.70;4.73;;;6.30;44.30;;;;;;20454;6862;313320;-72
2023/01/30 10:16:30;;;;;;;4.47;4.17;;;6.30;44.30;;;;;;20668;6862;117598;-73
2023/01/30 10:19:22;;;;;;;4.77;4.47;;;6.20;44.60;;;;;;20647;6862;119575;-72
2023/01/30 10:21:51;;;;;;;5.00;4.70;;;5.90;45.30;;;;;;20437;6862;283643;-73
2023/01/30 10:24:33;;;;;;;4.40;4.10;;;5.90;45.20;;;;;;20646;6862;117897;-72
2023/01/30 10:26:58;;;;;;;5.53;5.13;;;5.90;45.60;;;;;;20428;6862;308182;-73
2023/01/30 10:29:27;;;;;;;5.35;4.25;;;6.00;45.70;;;;;;20650;6862;120880;-73
2023/01/30 10:31:53;;;;;;;4.27;3.97;;;6.00;46.00;;;;;;20657;6862;123994;-72
2023/01/30 10:34:26;;;;;;;5.10;4.80;;;6.00;46.80;;;;;;20406;6862;308726;-73
2023/01/30 10:36:52;;;;;;;4.60;4.30;;;6.10;46.30;;;;;;20656;6862;117288;-72
2023/01/30 10:39:24;;;;;;;4.00;3.70;;;6.20;46.30;;;;;;20644;6862;127431;-72
2023/01/30 10:41:53;;;;;;;4.30;4.00;;;6.00;46.60;;;;;;20667;6862;117641;-72
2023/01/30 10:44:21;;;;;;;5.20;4.90;;;6.00;46.70;;;;;;20439;6862;279285;-72
2023/01/30 10:46:57;;;;;;;5.13;4.83;;;6.00;46.70;;;;;;20450;6862;312868;-73
2023/01/30 10:49:31;;;;;;;4.90;4.50;;;6.70;45.80;;;;;;20439;6862;279450;-72
2023/01/30 10:52:09;;;;;;;5.10;4.70;;;6.70;45.80;;;;;;20433;6860;341996;-73
2023/01/30 10:54:35;;;;;;;4.93;4.50;;;6.90;45.20;;;;;;20466;6861;312606;-73
2023/01/30 10:57:19;;;;;;;4.85;4.50;;;7.10;44.70;;;;;;20667;6861;118580;-73
2023/01/30 11:00:06;;;;;;;5.07;4.77;;;6.90;45.10;;;;;;20465;6862;281406;-72
2023/01/30 11:02:34;;;;;;;4.83;4.53;;;6.90;45.10;;;;;;20457;6862;283446;-73
2023/01/30 11:05:04;;;;;;;5.33;5.00;;;7.00;45.20;;;;;;20434;6862;279394;-74
2023/01/30 11:07:29;;;;;;;4.40;4.10;;;7.10;44.90;;;;;;20620;6862;120074;-74
2023/01/30 11:09:55;;;;;;;4.43;4.10;;;6.60;45.90;;;;;;20676;6862;117155;-74
2023/01/30 11:12:21;;;;;;;6.40;5.77;;;6.60;45.90;;;;;;20452;6862;324264;-74
2023/01/30 11:15:01;;;;;;;4.97;4.68;;;6.60;46.20;;;;;;20458;6862;309127;-74
2023/01/30 11:17:29;;;;;;;4.00;3.67;;;6.80;46.10;;;;;;20664;6862;121309;-75
2023/01/30 11:19:55;;;;;;;4.87;4.57;;;6.70;46.30;;;;;;20451;6862;299617;-73
2023/01/30 11:22:21;;;;;;;4.23;3.93;;;6.70;46.50;;;;;;20666;6862;118321;-73
2023/01/30 11:24:46;;;;;;;4.53;4.23;;;6.70;46.50;;;;;;20447;6862;313246;-73
2023/01/30 11:27:15;;;;;;;4.10;3.90;;;6.70;46.60;;;;;;20649;6862;118654;-74
2023/01/30 11:29:40;;;;;;;4.70;4.35;;;6.70;46.90;;;;;;20448;6862;304310;-74
2023/01/30 11:32:26;;;;;;;3.40;3.20;;;6.70;46.80;;;;;;20669;6862;117213;-74
2023/01/30 11:35:05;;;;;;;3.87;3.67;;;6.80;47.10;;;;;;20450;6862;310065;-74
2023/01/30 11:37:35;;;;;;;3.00;2.80;;;6.80;47.00;;;;;;20459;6862;307616;-74
2023/01/30 11:40:00;;;;;;;2.80;2.60;;;7.00;46.60;;;;;;20663;6862;117207;-74
2023/01/30 11:42:29;;;;;;;3.12;2.92;;;6.90;46.50;;;;;;20436;6862;313468;-75
2023/01/30 11:44:56;;;;;;;2.92;2.72;;;6.90;46.50;;;;;;20460;6862;311927;-75
2023/01/30 11:47:22;;;;;;;2.90;2.60;;;7.00;46.30;;;;;;20647;6862;118895;-75
2023/01/30 11:49:50;;;;;;;2.53;2.33;;;7.00;46.50;;;;;;20661;6862;117739;-73
2023/01/30 11:52:12;;;;;;;2.90;2.70;;;6.80;47.10;;;;;;20458;6862;308705;-74
2023/01/30 11:54:41;;;;;;;2.80;2.60;;;6.80;47.10;;;;;;20662;6862;118736;-74
2023/01/30 11:57:11;;;;;;;4.75;2.80;;;6.70;47.10;;;;;;20439;6862;306835;-74
2023/01/30 11:59:44;;;;;;;2.33;2.13;;;6.70;47.10;;;;;;20674;6862;124303;-74
2023/01/30 12:02:20;;;;;;;2.50;2.37;;;6.70;47.10;;;;;;20676;6862;117177;-74
2023/01/30 12:04:46;;;;;;;3.00;2.80;;;6.50;47.50;;;;;;20467;6860;278107;-72
2023/01/30 12:07:15;;;;;;;2.70;2.50;;;6.60;47.60;;;;;;20657;6861;121102;-72
2023/01/30 12:09:40;;;;;;;2.93;2.73;;;6.50;47.80;;;;;;20656;6861;117284;-73
2023/01/30 12:12:26;;;;;;;2.78;2.67;;;6.30;48.10;;;;;;20452;6862;309163;-71
2023/01/30 12:14:53;;;;;;;3.00;2.80;;;6.70;47.80;;;;;;20451;6862;339168;-72
2023/01/30 12:17:20;;;;;;;2.07;1.97;;;6.60;47.70;;;;;;20651;6862;121271;-72
2023/01/30 12:20:01;;;;;;;2.40;2.20;;;6.60;47.70;;;;;;20659;6862;117838;-73
2023/01/30 12:22:38;;;;;;;2.60;2.40;;;6.40;48.20;;;;;;20656;6862;117208;-73
2023/01/30 12:25:30;;;;;;;2.60;2.40;;;6.10;48.60;;;;;;20646;6862;123174;-74
2023/01/30 12:28:02;;;;;;;3.33;3.13;;;5.90;49.00;;;;;;19812;6862;309599;-75
2023/01/30 12:30:36;;;;;;;3.27;3.07;;;6.10;49.50;;;;;;20655;6862;119097;-75
2023/01/30 12:33:01;;;;;;;3.58;3.37;;;6.10;49.50;;;;;;20394;6862;308867;-74
2023/01/30 12:35:40;;;;;;;3.20;3.00;;;6.30;49.40;;;;;;20664;6862;118678;-72
2023/01/30 12:38:20;;;;;;;3.97;3.78;;;6.20;49.20;;;;;;20459;6862;282481;-74
2023/01/30 12:41:02;;;;;;;3.17;2.97;;;6.40;49.10;;;;;;20647;6862;117246;-77
2023/01/30 12:43:27;;;;;;;3.07;2.77;;;6.30;48.90;;;;;;20644;6862;117449;-75
2023/01/30 12:45:54;;;;;;;3.47;3.27;;;5.90;49.50;;;;;;20657;6862;117157;-75
2023/01/30 12:48:26;;;;;;;3.13;2.93;;;5.90;49.50;;;;;;20646;6862;118395;-76
2023/01/30 12:51:18;;;;;;;2.90;2.57;;;5.70;49.70;;;;;;20639;6862;123244;-74
2023/01/30 12:54:04;;;;;;;2.50;2.40;;;5.60;50.10;;;;;;20656;6862;117858;-73
2023/01/30 12:56:39;;;;;;;3.00;2.80;;;5.40;50.30;;;;;;20648;6862;117232;-74
2023/01/30 12:59:12;;;;;;;3.70;3.50;;;5.30;50.60;;;;;;20437;6862;308692;-76
2023/01/30 13:01:54;;;;;;;3.20;3.00;;;5.50;50.90;;;;;;20631;6862;117398;-75
2023/01/30 13:04:23;;;;;;;3.70;2.80;;;5.60;50.70;;;;;;20651;6862;118470;-73
2023/01/30 13:06:55;;;;;;;3.73;3.53;;;5.60;50.90;;;;;;20455;6862;279688;-74
2023/01/30 13:09:41;;;;;;;3.90;3.70;;;5.70;50.70;;;;;;20417;6862;325351;-73
2023/01/30 13:12:09;;;;;;;3.47;3.27;;;6.00;50.30;;;;;;20647;6862;121090;-76
2023/01/30 13:14:35;;;;;;;5.03;4.72;;;6.00;50.10;;;;;;20368;6862;337590;-75
2023/01/30 13:17:37;;;;;;;5.30;4.90;;;6.10;49.90;;;;;;20432;6860;279481;-78
2023/01/30 13:20:12;;;;;;;4.13;3.83;;;6.40;49.40;;;;;;20557;6861;117265;-76
2023/01/30 13:22:54;;;;;;;4.00;3.80;;;6.30;49.30;;;;;;20453;6862;338175;-74
2023/01/30 13:25:57;;;;;;;4.20;4.00;;;6.50;48.60;;;;;;20377;6862;281962;-78
2023/01/30 13:28:23;;;;;;;4.25;4.05;;;6.50;48.60;;;;;;20289;6856;338196;-77
2023/01/30 13:30:48;;;;;;;3.85;3.65;;;6.70;48.00;;;;;;20638;6856;117136;-78
2023/01/30 13:33:15;;;;;;;10.57;9.02;;;6.30;49.20;;;;;;20578;6863;150302;-75
2023/01/30 13:35:40;;;;;;;16.23;13.47;;;6.20;48.70;;;;;;20599;6878;117661;-75
2023/01/30 13:38:09;;;;;;;10.07;8.97;;;6.00;49.20;;;;;;20612;6863;114620;-77
2023/01/30 13:40:39;;;;;;;3.43;2.90;;;5.70;49.60;;;;;;20597;6878;118781;-77
2023/01/30 13:43:09;;;;;;;3.97;3.67;;;5.50;50.00;;;;;;20593;6878;123519;-77
2023/01/30 13:45:33;;;;;;;4.68;4.37;;;5.40;50.40;;;;;;20426;6869;343331;-78